createdAt,value
2018-09-18T00:00:38.541Z,20.70
2018-09-18T00:03:06.786Z,20.70
2018-09-18T00:05:35.131Z,20.70
2018-09-18T00:08:03.344Z,20.70
2018-09-18T00:10:31.583Z,20.70
2018-09-18T00:12:59.780Z,20.70
2018-09-18T00:15:28.018Z,20.70
2018-09-18T00:17:56.259Z,20.60
2018-09-18T00:20:24.598Z,20.60
2018-09-18T00:22:52.830Z,20.60
2018-09-18T00:25:21.045Z,20.60
2018-09-18T00:27:49.358Z,20.60
2018-09-18T00:30:18.336Z,20.60
2018-09-18T00:32:46.550Z,20.60
2018-09-18T00:35:15.299Z,20.60
2018-09-18T00:37:43.505Z,20.50
2018-09-18T00:40:11.722Z,20.50
2018-09-18T00:42:39.928Z,20.50
2018-09-18T00:45:08.154Z,20.50
2018-09-18T00:47:36.435Z,20.50
2018-09-18T00:50:04.828Z,20.50
2018-09-18T00:52:33.049Z,20.50
2018-09-18T00:55:01.271Z,20.50
2018-09-18T00:57:30.109Z,20.50
2018-09-18T00:59:58.329Z,20.50
2018-09-18T01:02:26.581Z,20.50
2018-09-18T01:04:54.849Z,20.40
2018-09-18T01:07:23.093Z,20.40
2018-09-18T01:09:51.326Z,20.40
2018-09-18T01:12:19.587Z,20.40
2018-09-18T01:14:47.866Z,20.40
2018-09-18T01:17:16.137Z,20.40
2018-09-18T01:19:44.410Z,20.40
2018-09-18T01:22:12.631Z,20.40
2018-09-18T01:24:40.871Z,20.40
2018-09-18T01:27:09.080Z,20.40
2018-09-18T01:29:37.308Z,20.40
2018-09-18T01:32:05.674Z,20.40
2018-09-18T01:34:34.355Z,20.30
2018-09-18T01:37:02.648Z,20.30
2018-09-18T01:39:30.846Z,20.30
2018-09-18T01:41:59.079Z,20.30
2018-09-18T01:44:27.292Z,20.30
2018-09-18T01:46:55.500Z,20.20
2018-09-18T01:49:23.719Z,20.20
2018-09-18T01:51:52.099Z,20.20
2018-09-18T01:54:20.462Z,20.20
2018-09-18T01:56:48.678Z,20.20
2018-09-18T01:59:16.958Z,20.20
2018-09-18T02:01:45.173Z,20.20
2018-09-18T02:04:13.391Z,20.20
2018-09-18T02:06:41.586Z,20.20
2018-09-18T02:09:09.862Z,20.20
2018-09-18T02:11:38.083Z,20.20
2018-09-18T02:14:06.330Z,20.10
2018-09-18T02:16:34.530Z,20.10
2018-09-18T02:19:02.758Z,20.10
2018-09-18T02:21:30.942Z,20.00
2018-09-18T02:23:59.193Z,20.00
2018-09-18T02:26:27.402Z,20.00
2018-09-18T02:28:55.641Z,20.00
2018-09-18T02:31:23.894Z,19.90
2018-09-18T02:33:52.114Z,20.00
2018-09-18T02:36:20.345Z,19.90
2018-09-18T02:38:48.934Z,19.90
2018-09-18T02:41:17.142Z,19.90
2018-09-18T02:43:45.363Z,19.90
2018-09-18T02:46:13.654Z,19.90
2018-09-18T02:48:41.992Z,19.90
2018-09-18T02:51:10.577Z,19.90
2018-09-18T02:53:39.006Z,19.90
2018-09-18T02:56:07.210Z,19.90
2018-09-18T02:58:35.447Z,19.90
2018-09-18T03:01:03.665Z,19.90
2018-09-18T03:03:31.930Z,19.90
2018-09-18T03:06:00.619Z,19.90
2018-09-18T03:08:28.881Z,19.90
2018-09-18T03:10:57.093Z,19.90
2018-09-18T03:13:25.344Z,19.90
2018-09-18T03:15:53.602Z,19.90
2018-09-18T03:18:21.897Z,19.90
2018-09-18T03:20:50.190Z,19.90
2018-09-18T03:23:18.392Z,19.90
2018-09-18T03:25:46.621Z,19.90
2018-09-18T03:28:14.842Z,19.90
2018-09-18T03:30:43.062Z,19.90
2018-09-18T03:33:11.270Z,19.90
2018-09-18T03:35:39.503Z,19.90
2018-09-18T03:38:07.708Z,19.90
2018-09-18T03:40:35.946Z,20.00
2018-09-18T03:43:04.262Z,19.90
2018-09-18T03:45:32.445Z,19.90
2018-09-18T03:48:01.438Z,19.90
2018-09-18T03:50:29.703Z,19.90
2018-09-18T03:52:57.944Z,19.90
2018-09-18T03:55:26.147Z,19.90
2018-09-18T03:57:54.388Z,19.90
2018-09-18T04:00:22.592Z,19.80
2018-09-18T04:02:50.812Z,19.80
2018-09-18T04:05:19.099Z,19.80
2018-09-18T04:07:47.392Z,19.80
2018-09-18T04:10:15.703Z,19.80
2018-09-18T04:12:43.931Z,19.80
2018-09-18T04:15:12.199Z,19.90
2018-09-18T04:17:40.389Z,19.80
2018-09-18T04:20:08.602Z,19.90
2018-09-18T04:22:36.841Z,19.80
2018-09-18T04:25:05.042Z,19.80
2018-09-18T04:27:33.258Z,19.80
2018-09-18T04:30:01.482Z,19.80
2018-09-18T04:32:29.703Z,19.80
2018-09-18T04:34:57.953Z,19.80
2018-09-18T04:37:26.153Z,19.80
2018-09-18T04:39:54.391Z,19.80
2018-09-18T04:42:22.649Z,19.80
2018-09-18T04:44:50.854Z,19.80
2018-09-18T04:47:19.095Z,19.70
2018-09-18T04:49:47.334Z,19.70
2018-09-18T04:52:16.062Z,19.70
2018-09-18T04:54:44.484Z,19.70
2018-09-18T04:57:12.655Z,19.70
2018-09-18T04:59:40.885Z,19.70
2018-09-18T05:02:09.157Z,19.70
2018-09-18T05:04:37.403Z,19.70
2018-09-18T05:07:05.610Z,19.70
2018-09-18T05:09:33.865Z,19.60
2018-09-18T05:12:02.083Z,19.60
2018-09-18T05:14:30.306Z,19.60
2018-09-18T05:16:58.490Z,19.70
2018-09-18T05:19:26.738Z,19.60
2018-09-18T05:21:55.001Z,19.60
2018-09-18T05:24:23.242Z,19.60
2018-09-18T05:26:51.465Z,19.70
2018-09-18T05:29:19.703Z,19.60
2018-09-18T05:31:47.978Z,19.70
2018-09-18T05:34:16.184Z,19.60
2018-09-18T05:36:44.357Z,19.70
2018-09-18T05:39:12.690Z,19.70
2018-09-18T05:41:40.914Z,19.70
2018-09-18T05:44:09.115Z,19.70
2018-09-18T05:46:37.569Z,19.80
2018-09-18T05:49:05.966Z,19.90
2018-09-18T05:51:34.551Z,19.90
2018-09-18T05:54:02.757Z,20.10
2018-09-18T05:56:30.931Z,21.10
2018-09-18T05:58:59.233Z,21.90
2018-09-18T06:01:27.510Z,21.90
2018-09-18T06:03:55.688Z,21.80
2018-09-18T06:06:23.921Z,21.50
2018-09-18T06:08:52.604Z,21.20
2018-09-18T06:11:21.422Z,21.00
2018-09-18T06:13:49.842Z,20.90
2018-09-18T06:16:19.426Z,20.80
2018-09-18T06:18:48.230Z,20.70
2018-09-18T06:21:16.915Z,20.60
2018-09-18T06:23:48.154Z,20.60
2018-09-18T06:26:16.728Z,20.70
2018-09-18T06:28:45.335Z,20.70
2018-09-18T06:31:13.906Z,20.70
2018-09-18T06:33:42.533Z,20.70
2018-09-18T06:36:11.494Z,20.70
2018-09-18T06:38:39.858Z,20.80
2018-09-18T06:41:08.043Z,20.80
2018-09-18T06:43:36.267Z,20.80
2018-09-18T06:46:04.517Z,20.80
2018-09-18T06:48:32.743Z,20.80
2018-09-18T06:51:00.988Z,20.90
2018-09-18T06:53:29.233Z,20.90
2018-09-18T06:55:57.462Z,20.90
2018-09-18T06:58:25.698Z,21.00
2018-09-18T07:00:53.886Z,21.00
2018-09-18T07:03:22.122Z,21.00
2018-09-18T07:05:50.315Z,21.10
2018-09-18T07:08:18.669Z,21.20
2018-09-18T07:10:46.956Z,21.20
2018-09-18T07:13:15.250Z,21.30
2018-09-18T07:15:43.477Z,21.30
2018-09-18T07:18:12.440Z,21.40
2018-09-18T07:20:40.751Z,21.50
2018-09-18T07:23:09.624Z,21.60
2018-09-18T07:25:37.916Z,21.60
2018-09-18T07:28:06.318Z,21.70
2018-09-18T07:30:34.551Z,21.80
2018-09-18T07:33:02.851Z,21.90
2018-09-18T07:35:31.131Z,21.90
2018-09-18T07:37:59.391Z,22.00
2018-09-18T07:40:28.055Z,22.10
2018-09-18T07:42:56.246Z,22.20
2018-09-18T07:45:24.529Z,22.20
2018-09-18T07:47:52.803Z,22.30
2018-09-18T07:50:21.143Z,22.40
2018-09-18T07:52:49.402Z,22.50
2018-09-18T07:55:17.637Z,22.60
2018-09-18T07:57:45.857Z,22.70
2018-09-18T08:00:14.118Z,22.80
2018-09-18T08:02:42.568Z,23.00
2018-09-18T08:05:10.843Z,23.10
2018-09-18T08:07:39.099Z,23.30
2018-09-18T08:10:07.698Z,23.40
2018-09-18T08:12:35.929Z,23.50
2018-09-18T08:15:04.330Z,23.70
2018-09-18T08:17:32.580Z,23.80
2018-09-18T08:20:00.834Z,23.90
2018-09-18T08:22:29.087Z,24.10
2018-09-18T08:24:57.324Z,24.00
2018-09-18T08:27:25.642Z,24.30
2018-09-18T08:29:53.850Z,24.40
2018-09-18T08:32:22.102Z,24.50
2018-09-18T08:34:50.340Z,24.60
2018-09-18T08:37:18.558Z,24.70
2018-09-18T08:39:47.077Z,24.70
2018-09-18T08:42:15.246Z,24.80
2018-09-18T08:44:43.561Z,24.90
2018-09-18T08:47:11.745Z,25.00
2018-09-18T08:49:40.003Z,25.20
2018-09-18T08:52:08.562Z,25.20
2018-09-18T08:54:36.766Z,25.40
2018-09-18T08:57:06.200Z,25.40
2018-09-18T08:59:34.435Z,25.50
2018-09-18T09:02:02.658Z,25.60
2018-09-18T09:04:30.942Z,25.70
2018-09-18T09:06:59.142Z,25.80
2018-09-18T09:09:27.428Z,25.90
2018-09-18T09:11:57.419Z,26.10
2018-09-18T09:14:26.041Z,26.20
2018-09-18T09:16:54.315Z,26.40
2018-09-18T09:19:22.532Z,26.50
2018-09-18T09:21:50.830Z,26.60
2018-09-18T09:24:19.390Z,26.70
2018-09-18T09:26:47.665Z,26.80
2018-09-18T09:29:15.833Z,26.90
2018-09-18T09:31:44.004Z,27.00
2018-09-18T09:34:12.262Z,27.10
2018-09-18T09:36:40.479Z,27.20
2018-09-18T09:39:11.030Z,27.30
2018-09-18T09:41:39.275Z,27.40
2018-09-18T09:44:07.734Z,27.50
2018-09-18T09:46:36.043Z,27.50
2018-09-18T09:49:04.780Z,27.60
2018-09-18T09:51:33.093Z,27.70
2018-09-18T09:54:01.226Z,27.70
2018-09-18T09:56:29.551Z,27.80
2018-09-18T09:58:57.754Z,27.90
2018-09-18T10:01:31.292Z,28.00
2018-09-18T10:03:59.553Z,28.10
2018-09-18T10:06:27.846Z,28.20
2018-09-18T10:08:56.094Z,28.30
2018-09-18T10:11:24.386Z,28.40
2018-09-18T10:13:52.622Z,28.50
2018-09-18T10:16:20.853Z,28.50
2018-09-18T10:18:49.093Z,28.60
2018-09-18T10:21:17.367Z,28.70
2018-09-18T10:23:45.602Z,28.90
2018-09-18T10:26:13.989Z,29.00
2018-09-18T10:28:42.737Z,29.10
2018-09-18T10:31:11.014Z,29.30
2018-09-18T10:33:39.245Z,29.40
2018-09-18T10:36:07.480Z,29.50
2018-09-18T10:38:35.825Z,29.60
2018-09-18T10:41:04.208Z,29.70
2018-09-18T10:43:33.188Z,29.90
2018-09-18T10:46:01.431Z,29.90
2018-09-18T10:48:29.611Z,30.00
2018-09-18T10:50:57.911Z,30.10
2018-09-18T10:53:26.121Z,30.20
2018-09-18T10:55:54.387Z,30.30
2018-09-18T10:58:22.639Z,30.30
2018-09-18T11:00:50.894Z,30.40
2018-09-18T11:03:19.062Z,30.50
2018-09-18T11:05:47.285Z,30.50
2018-09-18T11:08:15.563Z,30.60
2018-09-18T11:10:43.908Z,30.70
2018-09-18T11:13:12.236Z,30.70
2018-09-18T11:15:40.416Z,30.80
2018-09-18T11:18:08.629Z,30.90
2018-09-18T11:20:36.876Z,30.90
2018-09-18T11:23:05.166Z,31.10
2018-09-18T11:25:33.521Z,31.30
2018-09-18T11:28:01.719Z,31.40
2018-09-18T11:30:31.339Z,31.50
2018-09-18T11:32:59.864Z,31.60
2018-09-18T11:35:28.231Z,31.60
2018-09-18T11:37:56.471Z,31.70
2018-09-18T11:40:25.047Z,31.70
2018-09-18T11:42:53.289Z,31.70
2018-09-18T11:45:21.515Z,31.90
2018-09-18T11:47:50.461Z,31.80
2018-09-18T11:50:19.108Z,31.60
2018-09-18T11:52:47.333Z,31.60
2018-09-18T11:55:15.755Z,31.70
2018-09-18T11:57:44.316Z,31.80
2018-09-18T12:00:12.506Z,31.80
2018-09-18T12:02:41.009Z,31.70
2018-09-18T12:05:09.310Z,31.60
2018-09-18T12:07:37.492Z,31.70
2018-09-18T12:10:05.715Z,31.70
2018-09-18T12:12:33.987Z,31.90
2018-09-18T12:15:02.440Z,32.10
2018-09-18T12:17:30.962Z,32.30
2018-09-18T12:19:59.615Z,32.40
2018-09-18T12:22:28.281Z,32.40
2018-09-18T12:24:56.954Z,32.40
2018-09-18T12:27:25.234Z,32.50
2018-09-18T12:29:53.447Z,32.50
2018-09-18T12:32:21.803Z,32.60
2018-09-18T12:34:50.049Z,32.60
2018-09-18T12:37:18.275Z,32.50
2018-09-18T12:39:46.491Z,32.40
2018-09-18T12:42:14.933Z,32.40
2018-09-18T12:44:42.963Z,32.50
2018-09-18T12:47:11.442Z,32.50
2018-09-18T12:49:39.776Z,32.60
2018-09-18T12:52:07.908Z,32.60
2018-09-18T12:54:36.158Z,32.60
2018-09-18T12:57:04.483Z,32.50
2018-09-18T12:59:32.944Z,32.50
2018-09-18T13:02:01.121Z,32.40
2018-09-18T13:04:29.359Z,32.40
2018-09-18T13:06:57.569Z,32.20
2018-09-18T13:09:25.756Z,32.00
2018-09-18T13:11:54.060Z,31.90
2018-09-18T13:14:22.318Z,32.60
2018-09-18T13:16:50.523Z,31.70
2018-09-18T13:19:18.763Z,31.70
2018-09-18T13:21:47.081Z,31.80
2018-09-18T13:24:15.305Z,31.90
2018-09-18T13:26:43.502Z,32.00
2018-09-18T13:29:12.448Z,32.10
2018-09-18T13:31:40.746Z,32.30
2018-09-18T13:34:08.998Z,32.60
2018-09-18T13:36:37.298Z,32.80
2018-09-18T13:39:06.514Z,32.80
2018-09-18T13:41:34.785Z,32.70
2018-09-18T13:44:03.043Z,32.60
2018-09-18T13:46:31.420Z,32.50
2018-09-18T13:48:59.648Z,32.30
2018-09-18T13:51:30.881Z,32.20
2018-09-18T13:53:59.172Z,32.00
2018-09-18T13:56:27.488Z,32.00
2018-09-18T13:58:55.612Z,32.10
2018-09-18T14:01:30.612Z,32.10
2018-09-18T14:03:58.813Z,32.10
2018-09-18T14:06:27.064Z,31.90
2018-09-18T14:08:55.497Z,31.90
2018-09-18T14:11:23.702Z,31.90
2018-09-18T14:13:52.016Z,31.80
2018-09-18T14:16:20.486Z,31.70
2018-09-18T14:18:48.735Z,31.90
2018-09-18T14:21:16.927Z,31.90
2018-09-18T14:23:45.209Z,31.90
2018-09-18T14:26:14.511Z,32.00
2018-09-18T14:28:42.698Z,32.00
2018-09-18T14:31:10.900Z,32.00
2018-09-18T14:33:39.154Z,32.00
2018-09-18T14:36:07.453Z,31.90
2018-09-18T14:38:35.674Z,31.90
2018-09-18T14:41:03.948Z,31.80
2018-09-18T14:43:32.184Z,31.70
2018-09-18T14:46:00.724Z,31.70
2018-09-18T14:48:29.059Z,31.70
2018-09-18T14:50:57.337Z,31.60
2018-09-18T14:53:25.569Z,31.60
2018-09-18T14:55:53.836Z,31.50
2018-09-18T14:58:22.144Z,31.50
2018-09-18T15:00:50.848Z,31.50
2018-09-18T15:03:19.077Z,31.50
2018-09-18T15:05:47.329Z,31.50
2018-09-18T15:08:15.622Z,31.50
2018-09-18T15:10:43.826Z,31.40
2018-09-18T15:13:12.178Z,31.40
2018-09-18T15:15:40.545Z,31.50
2018-09-18T15:18:08.863Z,31.50
2018-09-18T15:20:37.378Z,31.40
2018-09-18T15:23:05.675Z,31.30
2018-09-18T15:25:34.071Z,31.40
2018-09-18T15:28:02.351Z,31.50
2018-09-18T15:30:37.018Z,31.60
2018-09-18T15:33:05.430Z,31.70
2018-09-18T15:35:34.959Z,31.80
2018-09-18T15:38:06.435Z,31.90
2018-09-18T15:40:34.627Z,31.90
2018-09-18T15:43:02.947Z,31.90
2018-09-18T15:45:31.193Z,31.80
2018-09-18T15:47:59.398Z,31.70
2018-09-18T15:50:27.601Z,31.70
2018-09-18T15:52:56.018Z,31.70
2018-09-18T15:55:24.481Z,31.70
2018-09-18T15:57:52.812Z,30.30
2018-09-18T16:00:21.093Z,31.50
2018-09-18T16:02:49.330Z,31.40
2018-09-18T16:05:17.584Z,31.30
2018-09-18T16:07:46.055Z,31.30
2018-09-18T16:10:14.303Z,31.20
2018-09-18T16:12:42.541Z,31.20
2018-09-18T16:15:10.801Z,31.00
2018-09-18T16:17:39.011Z,31.00
2018-09-18T16:20:07.222Z,30.90
2018-09-18T16:22:35.615Z,30.70
2018-09-18T16:25:03.753Z,30.70
2018-09-18T16:27:31.975Z,30.60
2018-09-18T16:30:00.223Z,30.40
2018-09-18T16:32:28.538Z,30.40
2018-09-18T16:34:56.753Z,30.40
2018-09-18T16:37:25.007Z,30.30
2018-09-18T16:39:53.271Z,30.30
2018-09-18T16:42:21.541Z,30.20
2018-09-18T16:44:49.728Z,30.10
2018-09-18T16:47:18.205Z,30.10
2018-09-18T16:49:46.414Z,30.00
2018-09-18T16:52:14.776Z,30.00
2018-09-18T16:54:43.221Z,30.00
2018-09-18T16:57:11.812Z,29.90
2018-09-18T16:59:40.262Z,29.90
2018-09-18T17:02:08.481Z,29.80
2018-09-18T17:04:36.800Z,29.80
2018-09-18T17:07:05.138Z,29.70
2018-09-18T17:09:33.391Z,29.70
2018-09-18T17:12:01.770Z,29.60
2018-09-18T17:14:29.998Z,29.60
2018-09-18T17:16:58.414Z,29.50
2018-09-18T17:19:26.641Z,29.40
2018-09-18T17:21:54.910Z,29.40
2018-09-18T17:24:23.138Z,29.30
2018-09-18T17:26:51.345Z,29.10
2018-09-18T17:29:19.637Z,29.00
2018-09-18T17:31:47.792Z,28.90
2018-09-18T17:34:16.024Z,27.10
2018-09-18T17:36:44.510Z,28.70
2018-09-18T17:39:13.033Z,28.70
2018-09-18T17:41:41.391Z,28.60
2018-09-18T17:44:10.372Z,28.50
2018-09-18T17:46:38.734Z,28.50
2018-09-18T17:49:07.176Z,28.40
2018-09-18T17:51:35.393Z,28.40
2018-09-18T17:54:03.793Z,28.30
2018-09-18T17:56:32.011Z,28.30
2018-09-18T17:59:00.259Z,28.20
2018-09-18T18:01:28.601Z,28.10
2018-09-18T18:03:57.256Z,28.10
2018-09-18T18:06:25.516Z,28.00
2018-09-18T18:08:53.711Z,27.90
2018-09-18T18:11:21.962Z,27.90
2018-09-18T18:13:50.288Z,27.80
2018-09-18T18:16:18.526Z,27.80
2018-09-18T18:18:47.042Z,27.70
2018-09-18T18:21:15.282Z,27.60
2018-09-18T18:23:43.575Z,27.60
2018-09-18T18:26:11.889Z,27.50
2018-09-18T18:28:40.033Z,27.50
2018-09-18T18:31:08.828Z,27.40
2018-09-18T18:33:37.056Z,27.40
2018-09-18T18:36:05.324Z,27.30
2018-09-18T18:38:33.663Z,27.30
2018-09-18T18:41:01.936Z,27.20
2018-09-18T18:43:30.535Z,27.20
2018-09-18T18:45:58.842Z,27.10
2018-09-18T18:48:27.155Z,27.10
2018-09-18T18:50:55.324Z,27.00
2018-09-18T18:53:23.559Z,27.00
2018-09-18T18:55:51.787Z,27.00
2018-09-18T18:58:20.047Z,27.00
2018-09-18T19:00:48.464Z,26.90
2018-09-18T19:03:16.728Z,26.80
2018-09-18T19:05:45.981Z,26.80
2018-09-18T19:08:14.254Z,26.80
2018-09-18T19:10:42.581Z,26.80
2018-09-18T19:13:11.010Z,26.70
2018-09-18T19:15:39.262Z,26.70
2018-09-18T19:18:07.482Z,26.60
2018-09-18T19:20:37.861Z,26.60
2018-09-18T19:23:06.082Z,26.60
2018-09-18T19:25:34.716Z,26.50
2018-09-18T19:28:04.526Z,26.50
2018-09-18T19:30:32.784Z,26.50
2018-09-18T19:33:01.107Z,26.40
2018-09-18T19:35:29.255Z,26.30
2018-09-18T19:38:00.304Z,26.30
2018-09-18T19:40:32.390Z,26.30
2018-09-18T19:43:04.196Z,26.20
2018-09-18T19:45:40.174Z,26.20
2018-09-18T19:48:08.486Z,26.10
2018-09-18T19:50:49.990Z,26.10
2018-09-18T19:53:24.785Z,26.10
2018-09-18T19:55:54.184Z,26.00
2018-09-18T19:58:22.436Z,26.00
2018-09-18T20:00:50.688Z,26.10
2018-09-18T20:03:19.502Z,26.00
2018-09-18T20:05:47.858Z,26.00
2018-09-18T20:08:16.148Z,25.90
2018-09-18T20:10:44.460Z,25.90
2018-09-18T20:13:12.914Z,25.90
2018-09-18T20:15:41.537Z,25.80
2018-09-18T20:18:09.843Z,25.70
2018-09-18T20:20:38.103Z,25.70
2018-09-18T20:23:07.580Z,25.60
2018-09-18T20:25:35.921Z,25.50
2018-09-18T20:28:04.282Z,25.50
2018-09-18T20:30:32.644Z,25.50
2018-09-18T20:33:01.198Z,25.40
2018-09-18T20:35:29.377Z,25.40
2018-09-18T20:37:57.590Z,25.30
2018-09-18T20:40:25.788Z,25.30
2018-09-18T20:42:54.330Z,25.10
2018-09-18T20:45:22.715Z,25.20
2018-09-18T20:47:50.979Z,25.20
2018-09-18T20:50:22.980Z,25.20
2018-09-18T20:52:53.138Z,25.10
2018-09-18T20:55:21.699Z,25.10
2018-09-18T20:57:50.279Z,25.00
2018-09-18T21:00:18.650Z,25.00
2018-09-18T21:02:47.113Z,24.90
2018-09-18T21:05:15.641Z,24.90
2018-09-18T21:07:43.890Z,26.20
2018-09-18T21:10:12.138Z,24.80
2018-09-18T21:12:40.371Z,24.70
2018-09-18T21:15:08.615Z,24.70
2018-09-18T21:17:36.829Z,24.60
2018-09-18T21:20:05.030Z,24.60
2018-09-18T21:22:33.258Z,24.50
2018-09-18T21:25:23.982Z,24.50
2018-09-18T21:27:52.413Z,24.50
2018-09-18T21:30:20.732Z,24.40
2018-09-18T21:35:23.758Z,24.30
2018-09-18T21:37:51.962Z,24.30
2018-09-18T21:40:20.209Z,24.20
2018-09-18T21:42:48.449Z,24.20
2018-09-18T21:45:16.635Z,24.10
2018-09-18T21:47:44.832Z,24.10
2018-09-18T21:50:13.026Z,24.00
2018-09-18T21:52:41.247Z,23.90
2018-09-18T21:55:09.454Z,23.80
2018-09-18T21:57:37.729Z,23.80
2018-09-18T22:00:06.643Z,23.80
2018-09-18T22:02:34.843Z,23.70
2018-09-18T22:05:03.081Z,23.70
2018-09-18T22:07:31.307Z,23.60
2018-09-18T22:09:59.483Z,23.60
2018-09-18T22:12:27.690Z,23.60
2018-09-18T22:14:55.885Z,23.60
2018-09-18T22:17:24.069Z,23.70
2018-09-18T22:19:52.337Z,23.70
2018-09-18T22:22:20.579Z,23.80
2018-09-18T22:24:48.719Z,23.70
2018-09-18T22:27:16.892Z,23.70
2018-09-18T22:29:45.086Z,23.70
2018-09-18T22:32:13.277Z,23.60
2018-09-18T22:34:50.132Z,23.60
2018-09-18T22:37:18.315Z,23.60
2018-09-18T22:39:46.506Z,23.70
2018-09-18T22:42:14.711Z,23.70
2018-09-18T22:44:42.910Z,23.70
2018-09-18T22:47:11.144Z,23.70
2018-09-18T22:49:39.345Z,23.70
2018-09-18T22:52:07.529Z,23.70
2018-09-18T22:54:35.719Z,23.60
2018-09-18T22:57:03.913Z,23.50
2018-09-18T22:59:32.105Z,23.50
2018-09-18T23:02:00.333Z,23.50
2018-09-18T23:04:28.561Z,23.50
2018-09-18T23:06:56.771Z,23.50
2018-09-18T23:09:25.380Z,23.50
2018-09-18T23:11:53.618Z,23.50
2018-09-18T23:14:22.827Z,23.50
2018-09-18T23:16:51.145Z,23.40
2018-09-18T23:19:19.425Z,23.40
2018-09-18T23:21:47.627Z,23.30
2018-09-18T23:24:15.822Z,23.20
2018-09-18T23:26:44.087Z,23.10
2018-09-18T23:29:12.316Z,23.10
2018-09-18T23:31:40.537Z,23.00
2018-09-18T23:34:08.771Z,22.90
2018-09-18T23:36:37.015Z,22.90
2018-09-18T23:39:07.479Z,22.80
2018-09-18T23:41:35.841Z,22.80
2018-09-18T23:44:04.071Z,22.70
2018-09-18T23:46:32.334Z,22.70
2018-09-18T23:49:00.552Z,22.70
2018-09-18T23:51:28.881Z,22.70
2018-09-18T23:53:57.073Z,22.70
2018-09-18T23:56:25.498Z,22.60
2018-09-18T23:58:54.080Z,22.60
